createdAt,value
2022-10-29T00:01:41.448Z,5.78
2022-10-29T00:04:10.395Z,4.95
2022-10-29T00:06:38.124Z,6.05
2022-10-29T00:09:06.218Z,5.18
2022-10-29T00:11:35.040Z,6.00
2022-10-29T00:14:02.896Z,5.60
2022-10-29T00:16:31.232Z,5.97
2022-10-29T00:18:58.730Z,5.55
2022-10-29T00:21:27.972Z,5.32
2022-10-29T00:23:55.551Z,5.63
2022-10-29T00:26:23.644Z,5.28
2022-10-29T00:28:53.041Z,5.93
2022-10-29T00:31:24.165Z,5.65
2022-10-29T00:33:52.533Z,5.30
2022-10-29T00:36:22.062Z,5.35
2022-10-29T00:38:51.470Z,4.93
2022-10-29T00:41:19.853Z,6.57
2022-10-29T00:43:48.731Z,5.05
2022-10-29T00:46:17.524Z,5.85
2022-10-29T00:48:46.606Z,4.20
2022-10-29T00:51:14.915Z,5.43
2022-10-29T00:53:43.517Z,5.07
2022-10-29T00:56:12.717Z,5.35
2022-10-29T00:58:40.340Z,5.10
2022-10-29T01:01:08.151Z,4.75
2022-10-29T01:03:35.744Z,4.88
2022-10-29T01:06:04.187Z,5.00
2022-10-29T01:08:31.727Z,5.38
2022-10-29T01:11:04.638Z,5.40
2022-10-29T01:13:43.934Z,5.68
2022-10-29T01:16:14.983Z,5.60
2022-10-29T01:18:47.081Z,4.97
2022-10-29T01:21:38.059Z,4.75
2022-10-29T01:24:23.591Z,5.43
2022-10-29T01:27:06.600Z,5.68
2022-10-29T01:29:43.362Z,5.75
2022-10-29T01:32:13.750Z,6.03
2022-10-29T01:34:43.893Z,5.50
2022-10-29T01:37:15.686Z,5.55
2022-10-29T01:39:45.479Z,4.93
2022-10-29T01:42:15.589Z,5.78
2022-10-29T01:44:47.106Z,5.28
2022-10-29T01:47:17.129Z,5.05
2022-10-29T01:49:46.184Z,5.88
2022-10-29T01:52:14.683Z,5.38
2022-10-29T01:54:42.553Z,5.50
2022-10-29T01:57:31.339Z,5.60
2022-10-29T02:00:01.037Z,5.80
2022-10-29T02:02:35.243Z,5.55
2022-10-29T02:05:10.142Z,6.15
2022-10-29T02:07:43.193Z,6.00
2022-10-29T02:10:16.439Z,5.95
2022-10-29T02:12:47.170Z,5.63
2022-10-29T02:15:17.813Z,5.93
2022-10-29T02:17:46.805Z,6.22
2022-10-29T02:20:15.388Z,5.80
2022-10-29T02:22:42.933Z,5.55
2022-10-29T02:25:11.276Z,6.10
2022-10-29T02:27:38.982Z,5.80
2022-10-29T02:30:07.375Z,5.57
2022-10-29T02:32:34.933Z,5.70
2022-10-29T02:35:03.777Z,5.75
2022-10-29T02:37:31.459Z,5.78
2022-10-29T02:39:59.009Z,5.75
2022-10-29T02:42:26.714Z,6.35
2022-10-29T02:44:54.278Z,5.75
2022-10-29T02:47:21.871Z,5.13
2022-10-29T02:49:49.455Z,5.93
2022-10-29T02:52:18.355Z,5.32
2022-10-29T02:54:45.953Z,6.15
2022-10-29T02:57:13.473Z,5.40
2022-10-29T02:59:41.022Z,5.85
2022-10-29T03:02:09.004Z,5.15
2022-10-29T03:04:39.195Z,5.57
2022-10-29T03:07:06.797Z,7.60
2022-10-29T03:09:35.655Z,5.50
2022-10-29T03:12:03.151Z,5.15
2022-10-29T03:14:30.802Z,5.40
2022-10-29T03:16:58.478Z,5.30
2022-10-29T03:19:26.011Z,6.03
2022-10-29T03:21:53.680Z,6.47
2022-10-29T03:24:21.304Z,6.28
2022-10-29T03:26:50.252Z,5.78
2022-10-29T03:29:18.147Z,6.80
2022-10-29T03:31:45.746Z,6.20
2022-10-29T03:34:13.292Z,6.57
2022-10-29T03:36:40.877Z,7.25
2022-10-29T03:39:08.517Z,5.80
2022-10-29T03:41:36.105Z,6.55
2022-10-29T03:44:04.982Z,6.90
2022-10-29T03:46:32.646Z,7.40
2022-10-29T03:49:00.501Z,5.93
2022-10-29T03:51:28.297Z,5.93
2022-10-29T03:53:55.919Z,6.50
2022-10-29T03:56:23.437Z,6.72
2022-10-29T03:58:51.028Z,7.38
2022-10-29T04:01:20.179Z,7.00
2022-10-29T04:03:47.812Z,6.53
2022-10-29T04:06:16.207Z,6.70
2022-10-29T04:08:43.858Z,6.45
2022-10-29T04:11:11.835Z,6.68
2022-10-29T04:13:39.446Z,7.05
2022-10-29T04:16:07.210Z,6.63
2022-10-29T04:18:36.151Z,6.63
2022-10-29T04:27:07.715Z,7.80
2022-10-29T04:29:27.162Z,6.82
2022-10-29T04:31:54.690Z,7.53
2022-10-29T04:34:23.566Z,7.18
2022-10-29T04:36:52.236Z,7.80
2022-10-29T04:39:22.559Z,7.85
2022-10-29T04:41:51.390Z,9.23
2022-10-29T04:44:19.933Z,7.40
2022-10-29T04:46:47.570Z,7.68
2022-10-29T04:49:15.249Z,8.32
2022-10-29T04:51:44.177Z,9.30
2022-10-29T04:54:11.786Z,8.90
2022-10-29T04:56:39.401Z,8.95
2022-10-29T04:59:06.892Z,10.00
2022-10-29T05:04:07.028Z,10.18
2022-10-29T05:06:34.524Z,9.18
2022-10-29T05:09:03.722Z,9.23
2022-10-29T05:11:31.275Z,10.77
2022-10-29T05:13:58.834Z,10.38
2022-10-29T05:16:26.347Z,9.45
2022-10-29T05:18:54.026Z,11.02
2022-10-29T05:21:21.565Z,9.63
2022-10-29T05:23:49.139Z,9.65
2022-10-29T05:26:18.122Z,10.75
2022-10-29T05:28:45.796Z,11.32
2022-10-29T05:31:13.516Z,12.07
2022-10-29T05:33:41.095Z,15.48
2022-10-29T05:36:08.941Z,15.05
2022-10-29T05:38:36.483Z,14.93
2022-10-29T05:41:04.159Z,15.20
2022-10-29T05:43:33.038Z,16.52
2022-10-29T05:46:02.974Z,15.05
2022-10-29T05:48:30.572Z,14.40
2022-10-29T05:50:58.055Z,16.77
2022-10-29T05:53:25.646Z,15.00
2022-10-29T05:55:53.163Z,15.48
2022-10-29T05:58:20.731Z,13.90
2022-10-29T06:00:49.635Z,13.48
2022-10-29T06:03:17.866Z,14.40
2022-10-29T06:05:45.611Z,13.05
2022-10-29T06:08:13.245Z,13.60
2022-10-29T06:10:40.759Z,13.07
2022-10-29T06:13:10.806Z,11.75
2022-10-29T06:15:38.311Z,12.05
2022-10-29T06:18:07.251Z,11.73
2022-10-29T06:20:36.649Z,12.80
2022-10-29T06:23:04.198Z,12.35
2022-10-29T06:25:31.783Z,12.38
2022-10-29T06:28:00.758Z,12.18
2022-10-29T06:30:28.530Z,13.02
2022-10-29T06:32:56.504Z,11.82
2022-10-29T06:35:25.687Z,13.77
2022-10-29T06:37:53.770Z,13.73
2022-10-29T06:40:21.588Z,15.00
2022-10-29T06:42:49.638Z,15.05
2022-10-29T06:45:19.644Z,14.20
2022-10-29T06:47:47.446Z,13.52
2022-10-29T06:50:15.081Z,14.27
2022-10-29T06:52:43.945Z,13.65
2022-10-29T06:55:11.441Z,14.43
2022-10-29T06:57:39.023Z,13.18
2022-10-29T07:00:08.578Z,13.88
2022-10-29T07:02:36.519Z,14.20
2022-10-29T07:05:04.420Z,13.75
2022-10-29T07:07:32.007Z,13.48
2022-10-29T07:10:00.895Z,12.90
2022-10-29T07:12:28.547Z,12.95
2022-10-29T07:14:56.054Z,12.70
2022-10-29T07:17:23.574Z,14.73
2022-10-29T07:19:51.079Z,14.82
2022-10-29T07:22:18.586Z,13.93
2022-10-29T07:24:46.114Z,14.60
2022-10-29T07:27:15.096Z,14.90
2022-10-29T07:29:42.686Z,14.93
2022-10-29T07:32:10.198Z,14.23
2022-10-29T07:34:37.807Z,14.20
2022-10-29T07:37:05.317Z,13.25
2022-10-29T07:39:32.931Z,14.15
2022-10-29T07:42:00.467Z,12.93
2022-10-29T07:44:29.378Z,13.77
2022-10-29T07:46:57.513Z,13.43
2022-10-29T07:49:25.126Z,13.38
2022-10-29T07:51:52.708Z,13.27
2022-10-29T07:54:20.357Z,13.30
2022-10-29T07:56:47.957Z,12.93
2022-10-29T07:59:17.744Z,13.30
2022-10-29T08:01:46.763Z,12.20
2022-10-29T08:04:14.533Z,12.10
2022-10-29T08:06:42.059Z,12.25
2022-10-29T08:09:09.813Z,12.80
2022-10-29T08:11:37.450Z,12.02
2022-10-29T08:14:05.238Z,11.98
2022-10-29T08:16:33.061Z,13.07
2022-10-29T08:19:02.586Z,13.18
2022-10-29T08:21:30.170Z,13.25
2022-10-29T08:23:57.723Z,13.80
2022-10-29T08:26:25.358Z,13.82
2022-10-29T08:28:53.175Z,14.65
2022-10-29T08:31:20.772Z,13.43
2022-10-29T08:33:48.772Z,13.82
2022-10-29T08:36:17.985Z,12.63
2022-10-29T08:38:45.564Z,14.13
2022-10-29T08:41:25.391Z,13.07
2022-10-29T08:46:41.496Z,13.18
2022-10-29T08:49:11.960Z,13.07
2022-10-29T08:51:41.707Z,12.77
2022-10-29T08:57:02.704Z,13.20
2022-10-29T08:59:33.557Z,12.55
2022-10-29T09:02:01.298Z,11.95
2022-10-29T09:04:32.786Z,12.23
2022-10-29T09:07:19.806Z,10.60
2022-10-29T09:09:50.249Z,10.73
2022-10-29T09:12:28.960Z,10.57
2022-10-29T09:15:11.367Z,10.65
2022-10-29T09:17:44.884Z,9.55
2022-10-29T09:20:24.263Z,16.70
2022-10-29T09:22:57.223Z,11.50
2022-10-29T09:25:28.582Z,10.98
2022-10-29T09:28:03.822Z,11.55
2022-10-29T09:30:32.352Z,12.27
2022-10-29T09:33:01.186Z,10.63
2022-10-29T09:35:35.877Z,11.75
2022-10-29T09:38:08.862Z,11.18
2022-10-29T09:40:37.757Z,10.52
2022-10-29T09:43:07.577Z,12.10
2022-10-29T09:45:42.551Z,12.65
2022-10-29T09:48:12.144Z,13.80
2022-10-29T09:50:42.714Z,13.80
2022-10-29T09:53:11.740Z,13.68
2022-10-29T09:55:40.823Z,14.38
2022-10-29T09:58:08.900Z,12.85
2022-10-29T10:00:36.500Z,12.77
2022-10-29T10:03:05.974Z,11.75
2022-10-29T10:05:34.725Z,11.93
2022-10-29T10:08:10.735Z,11.98
2022-10-29T10:10:51.122Z,11.23
2022-10-29T10:13:20.656Z,10.48
2022-10-29T10:15:52.954Z,9.40
2022-10-29T10:18:22.167Z,8.68
2022-10-29T10:21:00.089Z,10.23
2022-10-29T10:23:28.448Z,9.95
2022-10-29T10:26:02.072Z,10.43
2022-10-29T10:28:34.311Z,8.93
2022-10-29T10:31:07.107Z,8.77
2022-10-29T10:33:35.532Z,9.45
2022-10-29T10:36:04.749Z,9.98
2022-10-29T10:38:38.887Z,8.77
2022-10-29T10:41:08.830Z,8.75
2022-10-29T10:43:36.483Z,10.27
2022-10-29T10:46:06.419Z,9.32
2022-10-29T10:51:10.749Z,8.73
2022-10-29T10:53:40.347Z,9.25
2022-10-29T10:56:16.258Z,10.10
2022-10-29T10:58:45.489Z,9.80
2022-10-29T11:01:14.933Z,10.55
2022-10-29T11:03:44.395Z,8.98
2022-10-29T11:06:15.505Z,8.93
2022-10-29T11:08:45.012Z,9.35
2022-10-29T11:11:16.379Z,9.35
2022-10-29T11:13:44.874Z,9.02
2022-10-29T11:16:16.109Z,10.05
2022-10-29T11:18:46.389Z,9.63
2022-10-29T11:21:16.036Z,9.75
2022-10-29T11:23:45.989Z,10.43
2022-10-29T11:26:18.509Z,10.88
2022-10-29T11:28:48.145Z,9.00
2022-10-29T11:31:19.305Z,9.98
2022-10-29T11:33:49.176Z,10.25
2022-10-29T11:36:19.556Z,9.68
2022-10-29T11:38:49.962Z,9.60
2022-10-29T11:41:22.877Z,9.55
2022-10-29T11:43:50.560Z,9.82
2022-10-29T11:46:23.327Z,9.90
2022-10-29T11:48:58.438Z,10.77
2022-10-29T11:51:29.488Z,9.90
2022-10-29T11:53:59.395Z,10.25
2022-10-29T11:56:31.709Z,8.85
2022-10-29T11:59:03.041Z,9.30
2022-10-29T12:01:35.476Z,9.90
2022-10-29T12:06:47.029Z,10.13
2022-10-29T12:09:32.654Z,9.40
2022-10-29T12:12:04.695Z,10.00
2022-10-29T12:14:36.901Z,9.70
2022-10-29T12:17:10.557Z,10.13
2022-10-29T12:19:43.013Z,9.68
2022-10-29T12:22:18.067Z,9.88
2022-10-29T12:24:54.343Z,9.27
2022-10-29T12:27:26.479Z,9.52
2022-10-29T12:29:58.878Z,12.70
2022-10-29T12:32:28.745Z,10.55
2022-10-29T12:35:02.671Z,9.50
2022-10-29T12:37:37.768Z,10.77
2022-10-29T12:40:10.050Z,10.25
2022-10-29T12:42:39.916Z,10.27
2022-10-29T12:45:15.944Z,11.10
2022-10-29T12:47:47.531Z,9.85
2022-10-29T12:50:21.635Z,10.73
2022-10-29T12:52:53.426Z,9.85
2022-10-29T12:55:21.108Z,10.50
2022-10-29T12:57:50.134Z,10.45
2022-10-29T13:00:33.961Z,10.48
2022-10-29T13:03:02.172Z,10.80
2022-10-29T13:05:40.669Z,10.43
2022-10-29T13:08:32.415Z,10.05
2022-10-29T13:11:00.342Z,9.82
2022-10-29T13:13:46.810Z,10.63
2022-10-29T13:16:17.448Z,10.90
2022-10-29T13:18:48.409Z,10.52
2022-10-29T13:21:30.844Z,10.27
2022-10-29T13:24:03.842Z,9.95
2022-10-29T13:26:46.399Z,10.48
2022-10-29T13:29:34.126Z,10.88
2022-10-29T13:32:04.847Z,11.75
2022-10-29T13:34:52.633Z,10.30
2022-10-29T13:37:44.436Z,10.13
2022-10-29T13:40:30.752Z,10.32
2022-10-29T13:43:00.931Z,10.00
2022-10-29T13:45:28.647Z,10.35
2022-10-29T13:48:00.703Z,10.80
2022-10-29T13:50:28.316Z,10.23
2022-10-29T13:52:57.719Z,9.90
2022-10-29T13:55:26.458Z,9.93
2022-10-29T13:58:00.913Z,11.10
2022-10-29T14:00:29.072Z,12.88
2022-10-29T14:03:01.302Z,10.68
2022-10-29T14:05:30.738Z,10.85
2022-10-29T14:08:01.133Z,11.63
2022-10-29T14:13:08.780Z,11.98
2022-10-29T14:15:39.041Z,11.57
2022-10-29T14:18:25.224Z,10.57
2022-10-29T14:20:55.994Z,11.95
2022-10-29T14:23:23.572Z,12.38
2022-10-29T14:25:52.555Z,11.32
2022-10-29T14:28:22.176Z,10.85
2022-10-29T14:30:59.481Z,9.57
2022-10-29T14:33:28.991Z,9.75
2022-10-29T14:35:57.679Z,9.23
2022-10-29T14:38:31.049Z,9.68
2022-10-29T14:40:58.697Z,9.23
2022-10-29T14:43:28.345Z,9.25
2022-10-29T14:45:57.033Z,9.38
2022-10-29T14:48:24.657Z,9.10
2022-10-29T14:50:56.404Z,10.30
2022-10-29T14:53:28.539Z,10.45
2022-10-29T14:55:56.310Z,9.80
2022-10-29T14:58:27.108Z,8.90
2022-10-29T15:00:56.578Z,10.02
2022-10-29T15:03:25.705Z,9.77
2022-10-29T15:06:10.666Z,10.13
2022-10-29T15:08:39.530Z,10.90
2022-10-29T15:11:15.564Z,9.82
2022-10-29T15:13:43.283Z,11.73
2022-10-29T15:16:18.160Z,12.40
2022-10-29T15:18:48.156Z,11.25
2022-10-29T15:21:22.708Z,11.93
2022-10-29T15:23:53.617Z,10.48
2022-10-29T15:26:21.897Z,10.63
2022-10-29T15:28:50.203Z,11.13
2022-10-29T15:31:20.423Z,11.88
2022-10-29T15:33:48.363Z,12.20
2022-10-29T15:36:15.954Z,11.68
2022-10-29T15:39:09.869Z,11.85
2022-10-29T15:41:38.491Z,12.75
2022-10-29T15:44:26.501Z,12.27
2022-10-29T15:46:58.831Z,13.98
2022-10-29T15:49:28.373Z,13.63
2022-10-29T15:52:00.250Z,12.80
2022-10-29T15:54:29.903Z,13.25
2022-10-29T15:56:57.463Z,14.10
2022-10-29T15:59:26.499Z,13.23
2022-10-29T16:01:54.338Z,15.43
2022-10-29T16:04:22.006Z,16.23
2022-10-29T16:06:49.573Z,20.02
2022-10-29T16:09:18.117Z,19.73
2022-10-29T16:11:47.151Z,18.38
2022-10-29T16:14:14.884Z,17.20
2022-10-29T16:16:42.403Z,17.75
2022-10-29T16:19:10.022Z,17.48
2022-10-29T16:21:37.624Z,19.17
2022-10-29T16:24:05.423Z,19.90
2022-10-29T16:26:33.244Z,19.05
2022-10-29T16:29:02.167Z,17.00
2022-10-29T16:31:30.174Z,17.40
2022-10-29T16:33:58.425Z,15.68
2022-10-29T16:36:25.973Z,16.63
2022-10-29T16:38:53.546Z,16.33
2022-10-29T16:41:21.833Z,16.98
2022-10-29T16:43:49.607Z,16.38
2022-10-29T16:46:18.643Z,15.80
2022-10-29T16:48:46.519Z,15.88
2022-10-29T16:51:14.240Z,17.25
2022-10-29T16:53:41.799Z,16.83
2022-10-29T16:56:09.323Z,16.80
2022-10-29T16:58:36.886Z,16.92
2022-10-29T17:01:05.333Z,16.27
2022-10-29T17:03:35.231Z,18.13
2022-10-29T17:06:03.919Z,17.63
2022-10-29T17:08:32.310Z,18.42
2022-10-29T17:11:00.343Z,20.70
2022-10-29T17:13:27.879Z,29.52
2022-10-29T17:15:55.492Z,21.45
2022-10-29T17:18:24.602Z,18.45
2022-10-29T17:20:57.466Z,18.45
2022-10-29T17:23:25.152Z,18.80
2022-10-29T17:25:54.299Z,18.13
2022-10-29T17:28:21.969Z,17.55
2022-10-29T17:39:43.917Z,17.05
2022-10-29T17:42:11.500Z,16.90
2022-10-29T17:44:39.062Z,17.23
2022-10-29T17:47:06.596Z,16.50
2022-10-29T17:49:34.167Z,15.75
2022-10-29T17:52:01.721Z,16.73
2022-10-29T17:54:29.252Z,16.70
2022-10-29T17:56:58.245Z,16.38
2022-10-29T17:59:25.970Z,16.20
2022-10-29T18:01:53.578Z,16.65
2022-10-29T18:04:21.227Z,17.20
2022-10-29T18:06:48.870Z,16.23
2022-10-29T18:09:20.213Z,16.38
2022-10-29T18:11:49.414Z,16.73
2022-10-29T18:14:18.353Z,17.38
2022-10-29T18:16:46.396Z,15.63
2022-10-29T18:19:13.922Z,16.13
2022-10-29T18:21:41.547Z,15.98
2022-10-29T18:24:09.384Z,16.75
2022-10-29T18:26:37.299Z,15.55
2022-10-29T18:29:07.697Z,15.95
2022-10-29T18:31:37.467Z,15.50
2022-10-29T18:34:06.256Z,16.88
2022-10-29T18:36:35.406Z,17.05
2022-10-29T18:39:03.890Z,16.08
2022-10-29T18:41:31.462Z,16.00
2022-10-29T18:43:59.372Z,17.40
2022-10-29T18:46:27.327Z,17.70
2022-10-29T18:48:56.311Z,16.40
2022-10-29T18:51:25.088Z,15.25
2022-10-29T18:53:52.950Z,16.52
2022-10-29T18:56:21.797Z,16.95
2022-10-29T18:58:49.386Z,16.77
2022-10-29T19:01:18.233Z,16.25
2022-10-29T19:03:50.440Z,16.70
2022-10-29T19:06:19.895Z,16.48
2022-10-29T19:08:47.399Z,16.95
2022-10-29T19:11:16.005Z,16.65
2022-10-29T19:13:43.764Z,18.38
2022-10-29T19:16:12.033Z,19.65
2022-10-29T19:18:40.258Z,17.38
2022-10-29T19:21:08.576Z,16.90
2022-10-29T19:23:37.547Z,17.70
2022-10-29T19:26:05.557Z,18.58
2022-10-29T19:28:33.287Z,16.50
2022-10-29T19:31:04.066Z,16.77
2022-10-29T19:33:31.763Z,18.00
2022-10-29T19:35:59.668Z,17.15
2022-10-29T19:38:27.456Z,17.20
2022-10-29T19:40:56.997Z,16.55
2022-10-29T19:43:24.547Z,16.60
2022-10-29T19:45:52.816Z,16.00
2022-10-29T19:48:20.501Z,16.55
2022-10-29T19:50:53.714Z,17.52
2022-10-29T19:53:21.284Z,17.83
2022-10-29T19:55:50.364Z,19.50
2022-10-29T19:58:19.692Z,17.60
2022-10-29T20:00:47.572Z,18.35
2022-10-29T20:03:15.571Z,18.50
2022-10-29T20:05:43.700Z,19.88
2022-10-29T20:08:15.675Z,18.60
2022-10-29T20:10:44.140Z,17.95
2022-10-29T20:13:11.814Z,18.65
2022-10-29T20:15:40.859Z,17.65
2022-10-29T20:18:08.394Z,17.83
2022-10-29T20:20:36.182Z,19.02
2022-10-29T20:23:03.797Z,17.17
2022-10-29T20:25:31.354Z,16.95
2022-10-29T20:28:01.753Z,17.60
2022-10-29T20:30:29.306Z,17.45
2022-10-29T20:32:58.554Z,17.05
2022-10-29T20:35:26.435Z,18.13
2022-10-29T20:37:53.982Z,17.23
2022-10-29T20:40:21.544Z,17.83
2022-10-29T20:42:50.106Z,17.85
2022-10-29T20:45:17.776Z,15.75
2022-10-29T20:47:45.310Z,17.33
2022-10-29T20:50:14.413Z,17.10
2022-10-29T20:52:47.222Z,18.23
2022-10-29T20:55:16.324Z,18.75
2022-10-29T20:57:43.888Z,17.60
2022-10-29T21:00:11.960Z,18.70
2022-10-29T21:02:39.678Z,18.65
2022-10-29T21:05:07.513Z,17.80
2022-10-29T21:07:36.597Z,17.92
2022-10-29T21:10:04.197Z,17.63
2022-10-29T21:12:31.689Z,19.83
2022-10-29T21:14:59.203Z,17.42
2022-10-29T21:17:26.726Z,18.55
2022-10-29T21:19:54.218Z,19.23
2022-10-29T21:22:21.969Z,18.13
2022-10-29T21:24:51.011Z,17.30
2022-10-29T21:27:18.532Z,19.08
2022-10-29T21:29:46.111Z,18.83
2022-10-29T21:32:16.871Z,18.88
2022-10-29T21:34:44.769Z,20.88
2022-10-29T21:37:12.351Z,23.88
2022-10-29T21:39:39.909Z,18.38
2022-10-29T21:42:08.937Z,18.83
2022-10-29T21:44:36.535Z,19.25
2022-10-29T21:47:04.202Z,18.77
2022-10-29T21:49:31.759Z,19.00
2022-10-29T21:51:59.494Z,19.35
2022-10-29T21:54:28.383Z,19.23
2022-10-29T21:56:56.304Z,20.08
2022-10-29T21:59:25.206Z,19.58
2022-10-29T22:01:52.960Z,19.25
2022-10-29T22:04:20.811Z,19.88
2022-10-29T22:06:48.377Z,20.27
2022-10-29T22:09:15.938Z,19.85
2022-10-29T22:11:43.500Z,20.08
2022-10-29T22:14:11.077Z,19.38
2022-10-29T22:16:40.126Z,20.80
2022-10-29T22:19:07.757Z,21.02
2022-10-29T22:21:35.289Z,20.95
2022-10-29T22:24:02.925Z,19.92
2022-10-29T22:26:30.726Z,20.45
2022-10-29T22:28:58.300Z,20.45
2022-10-29T22:31:25.897Z,21.67
2022-10-29T22:33:54.974Z,20.85
2022-10-29T22:36:23.604Z,20.30
2022-10-29T22:38:53.342Z,20.88
2022-10-29T22:41:20.873Z,20.30
2022-10-29T22:43:48.417Z,20.58
2022-10-29T22:46:16.819Z,21.30
2022-10-29T22:48:44.461Z,20.05
2022-10-29T22:51:14.992Z,21.52
2022-10-29T22:53:42.867Z,19.70
2022-10-29T22:56:11.997Z,20.70
2022-10-29T22:58:39.519Z,22.67
2022-10-29T23:01:09.157Z,21.17
2022-10-29T23:03:38.663Z,20.42
2022-10-29T23:06:07.189Z,20.02
2022-10-29T23:08:36.283Z,20.45
2022-10-29T23:11:07.592Z,21.40
2022-10-29T23:13:35.475Z,19.30
2022-10-29T23:16:03.018Z,20.83
2022-10-29T23:18:30.580Z,19.75
2022-10-29T23:20:58.683Z,20.20
2022-10-29T23:23:26.207Z,19.77
2022-10-29T23:26:01.122Z,19.08
2022-10-29T23:28:29.347Z,20.13
2022-10-29T23:30:57.560Z,20.17
2022-10-29T23:33:25.382Z,20.50
2022-10-29T23:35:52.945Z,19.33
2022-10-29T23:38:20.530Z,20.70
2022-10-29T23:40:48.625Z,18.67
2022-10-29T23:43:17.544Z,19.70
2022-10-29T23:45:45.120Z,19.90
2022-10-29T23:48:12.726Z,19.83
2022-10-29T23:50:40.312Z,18.80
2022-10-29T23:53:08.098Z,20.50
2022-10-29T23:55:36.286Z,18.77
2022-10-29T23:58:04.769Z,18.85
